createdAt,value
2017-03-13T06:17:35.034Z,2.2
2017-03-13T06:18:15.731Z,2.2
2017-03-13T06:18:56.401Z,2.25
2017-03-13T06:19:37.073Z,2.25
2017-03-13T06:20:30.607Z,2.32
2017-03-13T06:21:11.250Z,2.36
2017-03-13T06:21:53.859Z,2.33
2017-03-13T06:22:34.521Z,2.29
2017-03-13T06:23:15.165Z,2.39
2017-03-13T06:23:55.757Z,2.49
2017-03-13T06:24:36.355Z,2.5
2017-03-13T06:25:16.910Z,2.53
2017-03-13T06:25:57.559Z,2.53
2017-03-13T06:26:38.163Z,2.49
2017-03-13T06:27:18.753Z,2.56
2017-03-13T06:27:59.351Z,2.6
2017-03-13T06:28:39.997Z,2.57
2017-03-13T06:29:20.559Z,2.65
2017-03-13T06:30:01.190Z,2.67
2017-03-13T06:30:41.838Z,2.71
2017-03-13T06:31:22.483Z,2.65
2017-03-13T06:32:03.155Z,2.79
2017-03-13T06:32:43.797Z,2.75
2017-03-13T06:33:24.437Z,2.74
2017-03-13T06:34:05.119Z,2.72
2017-03-13T06:34:45.681Z,2.77
2017-03-13T06:35:26.298Z,2.83
2017-03-13T06:36:06.936Z,2.79
2017-03-13T06:36:47.516Z,2.77
2017-03-13T06:37:28.159Z,2.83
2017-03-13T06:38:08.798Z,2.86
2017-03-13T06:38:49.356Z,2.83
2017-03-13T06:39:30.034Z,2.83
2017-03-13T06:40:10.730Z,2.89
2017-03-13T06:40:51.408Z,2.97
2017-03-13T06:41:31.968Z,2.98
2017-03-13T06:42:12.627Z,2.97
2017-03-13T06:42:53.317Z,2.89
2017-03-13T06:43:33.897Z,3.01
2017-03-13T06:44:14.536Z,3.01
2017-03-13T06:44:55.146Z,3.01
2017-03-13T06:45:35.794Z,3.05
2017-03-13T06:46:16.450Z,3.13
2017-03-13T06:46:57.119Z,3.14
2017-03-13T06:47:37.756Z,3.16
2017-03-13T06:48:18.426Z,3.22
2017-03-13T06:48:59.064Z,3.26
2017-03-13T06:49:39.694Z,3.19
2017-03-13T06:50:20.273Z,3.26
2017-03-13T06:51:00.894Z,3.32
2017-03-13T06:51:41.551Z,3.31
2017-03-13T06:52:22.109Z,3.36
2017-03-13T06:53:02.767Z,3.42
2017-03-13T06:53:43.409Z,3.42
2017-03-13T06:54:24.059Z,3.45
2017-03-13T06:55:04.714Z,3.45
2017-03-13T06:55:45.367Z,3.42
2017-03-13T06:56:26.015Z,3.47
2017-03-13T06:57:06.673Z,3.58
2017-03-13T06:57:47.326Z,3.58
2017-03-13T06:58:27.902Z,3.56
2017-03-13T06:59:08.550Z,3.63
2017-03-13T06:59:49.237Z,3.6
2017-03-13T07:00:29.799Z,3.66
2017-03-13T07:01:10.380Z,3.66
2017-03-13T07:01:51.044Z,3.73
2017-03-13T07:02:31.636Z,3.7
2017-03-13T07:03:12.243Z,3.76
2017-03-13T07:03:52.795Z,3.8
2017-03-13T07:04:33.471Z,3.83
2017-03-13T07:05:14.058Z,3.81
2017-03-13T07:05:54.643Z,3.84
2017-03-13T07:06:35.223Z,3.94
2017-03-13T07:07:15.885Z,3.92
2017-03-13T07:07:56.564Z,3.88
2017-03-13T07:08:37.388Z,3.94
2017-03-13T07:09:18.070Z,3.94
2017-03-13T07:09:58.716Z,3.95
2017-03-13T07:10:39.372Z,3.99
2017-03-13T07:11:20.023Z,3.98
2017-03-13T07:12:00.780Z,3.95
2017-03-13T07:12:41.331Z,3.96
2017-03-13T07:13:21.993Z,3.98
2017-03-13T07:14:02.637Z,4.1
2017-03-13T07:14:43.280Z,4.13
2017-03-13T07:15:23.953Z,4.13
2017-03-13T07:16:04.563Z,4.13
2017-03-13T07:16:45.210Z,4.22
2017-03-13T07:17:25.851Z,4.22
2017-03-13T07:18:06.458Z,4.13
2017-03-13T07:18:47.077Z,4.22
2017-03-13T07:19:27.724Z,4.14
2017-03-13T07:20:08.439Z,4.22
2017-03-13T07:20:49.036Z,4.26
2017-03-13T07:21:29.690Z,4.32
2017-03-13T07:22:10.336Z,4.26
2017-03-13T07:22:51.043Z,4.37
2017-03-13T07:23:31.802Z,4.35
2017-03-13T07:24:13.462Z,4.35
2017-03-13T07:24:54.162Z,4.38
2017-03-13T07:25:34.837Z,4.4
2017-03-13T07:26:15.488Z,4.44
2017-03-13T07:26:56.142Z,4.44
2017-03-13T07:27:36.782Z,4.45
2017-03-13T07:28:17.465Z,4.56
2017-03-13T07:28:58.141Z,4.59
2017-03-13T07:29:38.844Z,4.66
2017-03-13T07:30:19.506Z,4.62
2017-03-13T07:31:01.205Z,4.68
2017-03-13T07:31:41.863Z,4.6
2017-03-13T07:32:22.488Z,4.66
2017-03-13T07:33:03.259Z,4.75
2017-03-13T07:33:43.895Z,4.73
2017-03-13T07:34:24.451Z,4.75
2017-03-13T07:35:05.268Z,4.78
2017-03-13T07:35:45.828Z,4.82
2017-03-13T07:36:26.569Z,4.96
2017-03-13T07:37:07.138Z,4.99
2017-03-13T07:37:47.717Z,5.02
2017-03-13T07:38:28.304Z,4.97
2017-03-13T07:39:08.870Z,5.04
2017-03-13T07:39:49.434Z,5.11
2017-03-13T07:40:30.044Z,5.11
2017-03-13T07:41:12.644Z,5.17
2017-03-13T07:41:53.215Z,5.23
2017-03-13T07:42:34.792Z,5.21
2017-03-13T07:43:16.383Z,5.29
2017-03-13T07:43:57.994Z,5.38
2017-03-13T07:44:39.574Z,5.36
2017-03-13T07:45:21.138Z,5.51
2017-03-13T07:46:01.729Z,5.59
2017-03-13T07:46:42.316Z,5.53
2017-03-13T07:47:23.916Z,5.62
2017-03-13T07:48:04.568Z,5.64
2017-03-13T07:48:45.212Z,5.71
2017-03-13T07:49:25.894Z,5.64
2017-03-13T07:50:11.221Z,5.75
2017-03-13T07:50:51.790Z,5.71
2017-03-13T07:51:32.466Z,5.76
2017-03-13T07:52:14.085Z,5.83
2017-03-13T07:52:54.657Z,5.86
2017-03-13T07:53:37.360Z,5.91
2017-03-13T07:54:18.047Z,5.98
2017-03-13T07:55:04.432Z,5.97
2017-03-13T07:55:45.087Z,5.97
2017-03-13T07:56:26.759Z,6.04
2017-03-13T07:57:11.917Z,6.08
2017-03-13T07:57:53.501Z,6.12
2017-03-13T07:58:35.074Z,6.07
2017-03-13T07:59:16.653Z,6.12
2017-03-13T07:59:58.218Z,6.09
2017-03-13T08:00:40.772Z,6.14
2017-03-13T08:01:22.387Z,6.12
2017-03-13T08:02:03.050Z,6.16
2017-03-13T08:02:43.695Z,6.16
2017-03-13T08:03:26.304Z,6.22
2017-03-13T08:04:06.995Z,6.22
2017-03-13T08:04:47.577Z,6.26
2017-03-13T08:05:33.160Z,6.24
2017-03-13T08:06:18.449Z,6.22
2017-03-13T08:07:00.056Z,6.19
2017-03-13T08:07:40.619Z,6.22
2017-03-13T08:08:26.078Z,6.24
2017-03-13T08:09:12.410Z,6.17
2017-03-13T08:09:52.983Z,6.17
2017-03-13T08:10:34.611Z,6.17
2017-03-13T08:11:16.286Z,6.22
2017-03-13T08:11:57.865Z,6.16
2017-03-13T08:12:38.425Z,6.2
2017-03-13T08:13:19.999Z,6.2
2017-03-13T08:14:00.561Z,6.28
2017-03-13T08:14:41.147Z,6.26
2017-03-13T08:15:22.721Z,6.19
2017-03-13T08:16:03.270Z,6.44
2017-03-13T08:16:43.898Z,6.41
2017-03-13T08:17:24.466Z,6.36
2017-03-13T08:18:07.109Z,6.39
2017-03-13T08:18:47.681Z,6.41
2017-03-13T08:19:29.245Z,6.49
2017-03-13T08:20:09.825Z,6.48
2017-03-13T08:20:50.386Z,6.54
2017-03-13T08:21:30.941Z,6.59
2017-03-13T08:22:11.521Z,6.57
2017-03-13T08:22:53.093Z,6.64
2017-03-13T08:23:33.675Z,6.62
2017-03-13T08:24:15.253Z,6.64
2017-03-13T08:24:55.820Z,6.67
2017-03-13T08:25:36.406Z,6.74
2017-03-13T08:26:17.001Z,6.67
2017-03-13T08:26:57.573Z,6.64
2017-03-13T08:27:38.275Z,6.69
2017-03-13T08:28:18.851Z,6.69
2017-03-13T08:29:00.532Z,6.74
2017-03-13T08:29:42.201Z,6.63
2017-03-13T08:30:24.918Z,6.7
2017-03-13T08:31:05.539Z,6.77
2017-03-13T08:31:48.160Z,6.69
2017-03-13T08:32:29.819Z,6.69
2017-03-13T08:33:12.438Z,6.67
2017-03-13T08:33:54.005Z,6.7
2017-03-13T08:34:34.584Z,6.69
2017-03-13T08:35:15.150Z,6.69
2017-03-13T08:35:55.709Z,6.63
2017-03-13T08:36:38.283Z,6.74
2017-03-13T08:37:18.835Z,6.64
2017-03-13T08:37:59.439Z,6.66
2017-03-13T08:38:46.855Z,6.57
2017-03-13T08:39:27.412Z,6.57
2017-03-13T08:40:08.065Z,6.57
2017-03-13T08:40:49.689Z,6.51
2017-03-13T08:41:36.318Z,6.48
2017-03-13T08:42:16.875Z,6.39
2017-03-13T08:42:58.471Z,6.41
2017-03-13T08:43:39.163Z,6.35
2017-03-13T08:44:20.877Z,6.42
2017-03-13T08:45:01.442Z,6.28
2017-03-13T08:45:42.089Z,6.22
2017-03-13T08:46:27.409Z,6.22
2017-03-13T08:47:08.098Z,6.17
2017-03-13T08:47:48.660Z,6.08
2017-03-13T08:48:29.312Z,6.08
2017-03-13T08:49:10.945Z,6.08
2017-03-13T08:49:53.554Z,6.07
2017-03-13T08:50:36.229Z,6.04
2017-03-13T08:51:18.728Z,6.07
2017-03-13T08:51:59.380Z,6.04
2017-03-13T08:52:39.947Z,6.09
2017-03-13T08:53:20.515Z,6.04
2017-03-13T08:54:01.106Z,6.07
2017-03-13T08:54:41.663Z,6.09
2017-03-13T08:55:22.316Z,6.12
2017-03-13T08:56:02.988Z,6.02
2017-03-13T08:56:44.608Z,6.07
2017-03-13T08:57:25.157Z,6.08
2017-03-13T08:58:05.858Z,6.09
2017-03-13T08:58:46.570Z,6.19
2017-03-13T08:59:27.228Z,6.19
2017-03-13T09:00:07.802Z,6.22
2017-03-13T09:00:54.096Z,6.28
2017-03-13T09:01:35.700Z,6.38
2017-03-13T09:02:16.387Z,6.36
2017-03-13T09:02:56.953Z,6.35
2017-03-13T09:03:37.704Z,6.54
2017-03-13T09:04:18.306Z,6.51
2017-03-13T09:04:59.026Z,6.6
2017-03-13T09:05:39.664Z,6.59
2017-03-13T09:06:20.329Z,6.62
2017-03-13T09:07:00.970Z,6.63
2017-03-13T09:07:41.628Z,6.67
2017-03-13T09:08:22.280Z,6.74
2017-03-13T09:09:02.957Z,6.78
2017-03-13T09:09:43.623Z,6.85
2017-03-13T09:10:25.355Z,6.89
2017-03-13T09:11:05.898Z,6.85
2017-03-13T09:11:46.574Z,6.89
2017-03-13T09:12:27.270Z,6.95
2017-03-13T09:13:07.960Z,7
2017-03-13T09:13:48.515Z,6.96
2017-03-13T09:14:29.177Z,6.99
2017-03-13T09:15:09.843Z,7.13
2017-03-13T09:15:50.488Z,7.17
2017-03-13T09:16:32.083Z,7.14
2017-03-13T09:17:12.753Z,7.21
2017-03-13T09:17:53.383Z,7.23
2017-03-13T09:18:34.014Z,7.39
2017-03-13T09:19:14.725Z,7.36
2017-03-13T09:19:55.324Z,7.39
2017-03-13T09:20:35.906Z,7.45
2017-03-13T09:21:16.618Z,7.54
2017-03-13T09:21:57.353Z,7.51
2017-03-13T09:22:37.941Z,7.56
2017-03-13T09:23:18.586Z,7.57
2017-03-13T09:23:59.310Z,7.58
2017-03-13T09:24:39.883Z,7.63
2017-03-13T09:25:21.556Z,7.7
2017-03-13T09:26:09.069Z,7.72
2017-03-13T09:26:50.748Z,7.77
2017-03-13T09:27:36.108Z,7.76
2017-03-13T09:28:17.783Z,7.85
2017-03-13T09:28:59.369Z,7.95
2017-03-13T09:29:46.754Z,7.93
2017-03-13T09:30:27.321Z,7.83
2017-03-13T09:31:09.050Z,8
2017-03-13T09:31:49.654Z,8.01
2017-03-13T09:32:30.210Z,7.95
2017-03-13T09:33:12.807Z,8.08
2017-03-13T09:33:53.441Z,7.98
2017-03-13T09:34:34.095Z,8.1
2017-03-13T09:35:14.749Z,8.09
2017-03-13T09:35:56.438Z,8.1
2017-03-13T09:36:37.073Z,8.12
2017-03-13T09:37:17.727Z,8.19
2017-03-13T09:38:04.833Z,8.15
2017-03-13T09:38:47.430Z,8.31
2017-03-13T09:39:30.146Z,8.26
2017-03-13T09:40:17.337Z,8.3
2017-03-13T09:40:57.993Z,8.38
2017-03-13T09:41:38.643Z,8.53
2017-03-13T09:42:19.301Z,8.49
2017-03-13T09:43:00.051Z,8.66
2017-03-13T09:43:41.737Z,8.66
2017-03-13T09:44:22.349Z,8.71
2017-03-13T09:45:03.992Z,8.79
2017-03-13T09:45:44.644Z,8.84
2017-03-13T09:46:25.295Z,8.91
2017-03-13T09:47:07.874Z,9.02
2017-03-13T09:47:48.535Z,9.11
2017-03-13T09:48:30.224Z,9.16
2017-03-13T09:49:11.896Z,9.19
2017-03-13T09:49:57.398Z,9.25
2017-03-13T09:50:37.992Z,9.26
2017-03-13T09:51:18.562Z,9.37
2017-03-13T09:52:00.245Z,9.39
2017-03-13T09:52:40.932Z,9.54
2017-03-13T09:53:21.629Z,9.51
2017-03-13T09:54:02.196Z,9.58
2017-03-13T09:54:42.850Z,9.48
2017-03-13T09:55:24.536Z,9.62
2017-03-13T09:56:05.285Z,9.51
2017-03-13T09:56:45.943Z,9.55
2017-03-13T09:57:27.621Z,9.51
2017-03-13T09:58:08.275Z,9.44
2017-03-13T09:58:48.904Z,9.39
2017-03-13T09:59:29.577Z,9.39
2017-03-13T10:00:10.225Z,9.36
2017-03-13T10:00:50.888Z,9.26
2017-03-13T10:01:31.544Z,9.39
2017-03-13T10:02:12.211Z,9.43
2017-03-13T10:02:53.865Z,9.41
2017-03-13T10:03:34.525Z,9.39
2017-03-13T10:04:15.161Z,9.48
2017-03-13T10:04:56.834Z,9.54
2017-03-13T10:05:37.488Z,9.5
2017-03-13T10:06:18.165Z,9.58
2017-03-13T10:06:58.839Z,9.51
2017-03-13T10:07:39.650Z,9.56
2017-03-13T10:08:20.385Z,9.51
2017-03-13T10:09:01.154Z,9.62
2017-03-13T10:09:41.797Z,9.51
2017-03-13T10:10:22.539Z,9.55
2017-03-13T10:11:03.192Z,9.56
2017-03-13T10:11:43.944Z,9.54
2017-03-13T10:12:24.706Z,9.55
2017-03-13T10:13:05.465Z,9.56
2017-03-13T10:13:46.216Z,9.48
2017-03-13T10:14:26.787Z,9.51
2017-03-13T10:15:07.354Z,9.51
2017-03-13T10:15:47.984Z,9.56
2017-03-13T10:16:28.647Z,9.61
2017-03-13T10:17:09.298Z,9.64
2017-03-13T10:17:49.948Z,9.69
2017-03-13T10:18:31.617Z,9.82
2017-03-13T10:19:17.062Z,9.87
2017-03-13T10:19:57.723Z,9.95
2017-03-13T10:20:38.294Z,9.94
2017-03-13T10:21:18.939Z,9.97
2017-03-13T10:21:59.674Z,9.97
2017-03-13T10:22:40.256Z,10.1
2017-03-13T10:23:20.826Z,10.09
2017-03-13T10:24:01.481Z,10.2
2017-03-13T10:24:42.132Z,10.16
2017-03-13T10:25:22.685Z,10.22
2017-03-13T10:26:03.412Z,10.26
2017-03-13T10:26:46.047Z,10.37
2017-03-13T10:27:26.670Z,10.44
2017-03-13T10:28:07.328Z,10.4
2017-03-13T10:28:48.076Z,10.49
2017-03-13T10:29:28.829Z,10.54
2017-03-13T10:30:09.622Z,10.56
2017-03-13T10:30:50.311Z,10.71
2017-03-13T10:31:30.899Z,10.71
2017-03-13T10:32:11.529Z,10.69
2017-03-13T10:32:52.170Z,10.63
2017-03-13T10:33:32.723Z,10.76
2017-03-13T10:34:13.402Z,10.79
2017-03-13T10:34:54.050Z,10.79
2017-03-13T10:35:34.710Z,10.87
2017-03-13T10:36:15.356Z,10.84
2017-03-13T10:36:56.014Z,10.79
2017-03-13T10:37:36.651Z,10.76
2017-03-13T10:38:17.318Z,10.78
2017-03-13T10:38:57.968Z,10.79
2017-03-13T10:39:38.610Z,10.71
2017-03-13T10:40:19.243Z,10.75
2017-03-13T10:40:59.907Z,10.68
2017-03-13T10:41:40.536Z,10.72
2017-03-13T10:42:21.212Z,10.64
2017-03-13T10:43:01.911Z,10.67
2017-03-13T10:43:42.523Z,10.69
2017-03-13T10:44:23.153Z,10.69
2017-03-13T10:45:03.801Z,10.69
2017-03-13T10:45:44.384Z,10.78
2017-03-13T10:46:25.011Z,10.82
2017-03-13T10:47:05.757Z,10.81
2017-03-13T10:47:46.324Z,10.87
2017-03-13T10:48:26.974Z,10.89
2017-03-13T10:49:07.664Z,10.84
2017-03-13T10:49:48.213Z,10.81
2017-03-13T10:50:28.825Z,10.81
2017-03-13T10:51:09.512Z,10.92
2017-03-13T10:51:50.183Z,10.84
2017-03-13T10:52:30.809Z,10.71
2017-03-13T10:53:11.438Z,10.67
2017-03-13T10:53:52.092Z,10.67
2017-03-13T10:54:32.754Z,10.68
2017-03-13T10:55:13.403Z,10.72
2017-03-13T10:55:54.043Z,10.76
2017-03-13T10:56:34.702Z,10.86
2017-03-13T10:57:15.341Z,10.86
2017-03-13T10:57:56.016Z,10.93
2017-03-13T10:58:36.647Z,10.96
2017-03-13T10:59:17.240Z,11.02
2017-03-13T10:59:57.907Z,11.02
2017-03-13T11:00:38.571Z,11.08
2017-03-13T11:01:19.160Z,11.15
2017-03-13T11:01:59.713Z,11.26
2017-03-13T11:02:41.403Z,11.32
2017-03-13T11:03:22.003Z,11.43
2017-03-13T11:04:03.620Z,11.52
2017-03-13T11:04:44.182Z,11.47
2017-03-13T11:05:24.859Z,11.48
2017-03-13T11:06:05.425Z,11.45
2017-03-13T11:06:46.026Z,11.55
2017-03-13T11:07:26.590Z,11.6
2017-03-13T11:08:07.252Z,11.68
2017-03-13T11:08:47.841Z,11.66
2017-03-13T11:09:28.426Z,11.69
2017-03-13T11:10:09.035Z,11.68
2017-03-13T11:10:49.684Z,11.68
2017-03-13T11:11:30.298Z,11.63
2017-03-13T11:12:10.959Z,11.7
2017-03-13T11:12:51.629Z,11.6
2017-03-13T11:13:32.273Z,11.55
2017-03-13T11:14:12.926Z,11.65
2017-03-13T11:14:53.565Z,11.6
2017-03-13T11:15:34.264Z,11.73
2017-03-13T11:16:14.882Z,11.78
2017-03-13T11:16:55.554Z,11.86
2017-03-13T11:17:36.175Z,11.88
2017-03-13T11:18:16.855Z,11.87
2017-03-13T11:18:57.491Z,11.87
2017-03-13T11:19:38.074Z,11.87
2017-03-13T11:20:18.690Z,11.86
2017-03-13T11:20:59.250Z,11.81
2017-03-13T11:21:39.878Z,11.77
2017-03-13T11:22:20.456Z,11.69
2017-03-13T11:23:01.094Z,11.6
2017-03-13T11:23:41.681Z,11.62
2017-03-13T11:24:22.284Z,11.6
2017-03-13T11:25:02.856Z,11.6
2017-03-13T11:25:43.509Z,11.63
2017-03-13T11:26:24.205Z,11.65
2017-03-13T11:27:04.798Z,11.63
2017-03-13T11:27:45.357Z,11.6
2017-03-13T11:28:26.020Z,11.55
2017-03-13T11:29:07.636Z,11.57
2017-03-13T11:29:48.303Z,11.52
2017-03-13T11:30:28.936Z,11.63
2017-03-13T11:31:09.592Z,11.6
2017-03-13T11:31:50.243Z,11.63
2017-03-13T11:32:30.898Z,11.8
2017-03-13T11:33:11.553Z,11.84
2017-03-13T11:33:52.208Z,11.83
2017-03-13T11:34:32.804Z,11.86
2017-03-13T11:35:13.369Z,11.97
2017-03-13T11:35:54.039Z,11.91
2017-03-13T11:36:34.712Z,11.97
2017-03-13T11:37:15.321Z,11.91
2017-03-13T11:37:55.896Z,11.94
2017-03-13T11:38:36.545Z,11.84
2017-03-13T11:39:17.223Z,11.84
2017-03-13T11:39:57.883Z,11.97
2017-03-13T11:40:38.540Z,11.99
2017-03-13T11:41:19.184Z,11.9
2017-03-13T11:41:59.839Z,11.97
2017-03-13T11:42:40.500Z,11.88
2017-03-13T11:43:21.143Z,11.91
2017-03-13T11:44:02.830Z,11.91
2017-03-13T11:44:43.515Z,11.86
2017-03-13T11:45:24.081Z,11.84
2017-03-13T11:46:04.739Z,11.84
2017-03-13T11:46:45.321Z,11.88
2017-03-13T11:47:25.923Z,11.87
2017-03-13T11:48:06.497Z,11.95
2017-03-13T11:48:47.137Z,11.88
2017-03-13T11:49:27.864Z,11.88
2017-03-13T11:50:08.528Z,11.91
2017-03-13T11:50:49.124Z,11.91
2017-03-13T11:51:29.764Z,11.91
2017-03-13T11:52:10.457Z,11.99
2017-03-13T11:52:52.070Z,12.09
2017-03-13T11:53:32.655Z,12.12
2017-03-13T11:54:13.301Z,12.12
2017-03-13T11:54:53.995Z,12.15
2017-03-13T11:55:34.645Z,12.12
2017-03-13T11:56:15.228Z,12.13
2017-03-13T11:56:55.895Z,12.07
2017-03-13T11:57:36.549Z,12.02
2017-03-13T11:58:17.201Z,12.07
2017-03-13T11:58:57.868Z,12.15
2017-03-13T11:59:38.508Z,12.15
2017-03-13T12:00:19.187Z,12.22
2017-03-13T12:00:59.824Z,12.24
2017-03-13T12:01:40.479Z,12.24
2017-03-13T12:02:22.150Z,12.27
2017-03-13T12:03:02.810Z,12.27
2017-03-13T12:03:43.461Z,12.24
2017-03-13T12:04:24.143Z,12.21
2017-03-13T12:05:04.766Z,12.2
2017-03-13T12:05:45.412Z,12.24
2017-03-13T12:06:26.074Z,12.28
2017-03-13T12:07:06.731Z,12.25
2017-03-13T12:07:47.374Z,12.2
2017-03-13T12:08:28.034Z,12.2
2017-03-13T12:09:08.671Z,12.25
2017-03-13T12:09:49.343Z,12.21
2017-03-13T12:10:29.991Z,12.2
2017-03-13T12:11:10.637Z,12.22
2017-03-13T12:11:51.285Z,12.29
2017-03-13T12:12:31.962Z,12.32
2017-03-13T12:13:12.578Z,12.32
2017-03-13T12:13:53.263Z,12.32
2017-03-13T12:14:33.899Z,12.29
2017-03-13T12:15:14.600Z,12.43
2017-03-13T12:15:55.190Z,12.4
2017-03-13T12:16:35.763Z,12.49
2017-03-13T12:17:16.401Z,12.37
2017-03-13T12:17:57.007Z,12.64
2017-03-13T12:18:37.598Z,12.58
2017-03-13T12:19:18.167Z,12.61
2017-03-13T12:19:58.823Z,12.73
2017-03-13T12:20:39.376Z,12.83
2017-03-13T12:21:20.014Z,12.83
2017-03-13T12:22:00.620Z,12.79
2017-03-13T12:22:41.206Z,12.83
2017-03-13T12:23:21.769Z,12.79
2017-03-13T12:24:02.436Z,12.79
2017-03-13T12:24:43.020Z,12.82
2017-03-13T12:25:23.628Z,12.78
2017-03-13T12:26:04.275Z,12.8
2017-03-13T12:26:44.946Z,12.8
2017-03-13T12:27:25.592Z,12.79
2017-03-13T12:28:06.246Z,12.73
2017-03-13T12:28:46.927Z,12.75
2017-03-13T12:29:27.537Z,12.75
2017-03-13T12:30:08.138Z,12.73
2017-03-13T12:30:48.738Z,12.79
2017-03-13T12:31:29.303Z,12.82
2017-03-13T12:32:09.971Z,12.79
2017-03-13T12:32:50.659Z,12.79
2017-03-13T12:33:31.238Z,12.73
2017-03-13T12:34:11.825Z,12.8
2017-03-13T12:34:52.511Z,12.79
2017-03-13T12:35:33.181Z,12.78
2017-03-13T12:36:13.805Z,12.82
2017-03-13T12:36:54.463Z,12.78
2017-03-13T12:37:35.117Z,12.8
2017-03-13T12:38:15.773Z,12.8
2017-03-13T12:38:56.416Z,12.76
2017-03-13T12:39:37.015Z,12.85
2017-03-13T12:40:17.579Z,12.87
2017-03-13T12:40:58.253Z,12.87
2017-03-13T12:41:38.931Z,12.97
2017-03-13T12:42:19.530Z,13.03
2017-03-13T12:43:00.116Z,13.12
2017-03-13T12:43:40.764Z,13.18
2017-03-13T12:44:22.359Z,13.12
2017-03-13T12:45:03.028Z,13.18
2017-03-13T12:45:44.699Z,13.35
2017-03-13T12:46:25.349Z,13.33
2017-03-13T12:47:06.002Z,13.28
2017-03-13T12:47:46.648Z,13.38
2017-03-13T12:48:27.303Z,13.41
2017-03-13T12:49:07.959Z,13.37
2017-03-13T12:49:48.614Z,13.37
2017-03-13T12:50:29.224Z,13.35
2017-03-13T12:51:09.884Z,13.42
2017-03-13T12:54:33.029Z,13.59
2017-03-13T12:55:13.740Z,13.6
2017-03-13T12:55:54.370Z,13.59
2017-03-13T12:56:35.009Z,13.71
2017-03-13T12:57:15.675Z,13.67
2017-03-13T12:57:56.304Z,13.77
2017-03-13T12:58:36.963Z,13.81
2017-03-13T12:59:17.624Z,13.71
2017-03-13T12:59:58.274Z,13.72
2017-03-13T13:00:38.926Z,13.7
2017-03-13T13:01:19.561Z,13.68
2017-03-13T13:02:00.229Z,13.72
2017-03-13T13:02:40.859Z,13.68
2017-03-13T13:03:22.543Z,13.7
2017-03-13T13:04:03.190Z,13.79
2017-03-13T13:04:43.767Z,13.81
2017-03-13T13:05:24.409Z,13.81
2017-03-13T13:06:05.102Z,13.86
2017-03-13T13:06:45.701Z,13.77
2017-03-13T13:07:26.264Z,13.75
2017-03-13T13:08:06.928Z,13.78
2017-03-13T13:08:47.612Z,13.78
2017-03-13T13:09:29.232Z,13.68
2017-03-13T13:10:09.879Z,13.67
2017-03-13T13:10:50.539Z,13.78
2017-03-13T13:11:32.216Z,13.78
2017-03-13T13:12:12.869Z,13.77
2017-03-13T13:12:53.525Z,13.89
2017-03-13T13:13:34.185Z,13.92
2017-03-13T13:14:14.828Z,13.9
2017-03-13T13:14:55.496Z,14.07
2017-03-13T13:15:36.136Z,14.1
2017-03-13T13:16:16.785Z,14.18
2017-03-13T13:16:57.435Z,14.2
2017-03-13T13:17:38.092Z,14.23
2017-03-13T13:18:18.745Z,14.22
2017-03-13T13:18:59.397Z,14.28
2017-03-13T13:19:40.051Z,14.28
2017-03-13T13:20:20.711Z,14.26
2017-03-13T13:21:01.357Z,14.3
2017-03-13T13:21:42.010Z,14.25
2017-03-13T13:22:22.661Z,14.26
2017-03-13T13:23:03.309Z,14.28
2017-03-13T13:23:43.971Z,14.33
2017-03-13T13:24:24.619Z,14.37
2017-03-13T13:25:05.272Z,14.43
2017-03-13T13:25:45.952Z,14.44
2017-03-13T13:26:26.589Z,14.33
2017-03-13T13:27:07.246Z,14.44
2017-03-13T13:27:47.904Z,14.45
2017-03-13T13:28:28.555Z,14.47
2017-03-13T13:29:10.276Z,14.48
2017-03-13T13:29:50.902Z,14.45
2017-03-13T13:30:33.518Z,14.41
2017-03-13T13:31:14.191Z,14.47
2017-03-13T13:31:54.790Z,14.48
2017-03-13T13:32:35.443Z,14.44
2017-03-13T13:33:16.098Z,14.4
2017-03-13T13:33:56.753Z,14.44
2017-03-13T13:34:37.390Z,14.51
2017-03-13T13:35:18.121Z,14.55
2017-03-13T13:35:58.811Z,14.58
2017-03-13T13:36:39.461Z,14.59
2017-03-13T13:37:20.126Z,14.59
2017-03-13T13:38:00.759Z,14.59
2017-03-13T13:38:42.449Z,14.53
2017-03-13T13:39:23.111Z,14.59
2017-03-13T13:40:03.745Z,14.43
2017-03-13T13:40:45.327Z,14.48
2017-03-13T13:41:25.982Z,14.48
2017-03-13T13:42:06.625Z,14.5
2017-03-13T13:42:47.287Z,14.53
2017-03-13T13:43:27.941Z,14.59
2017-03-13T13:44:08.628Z,14.55
2017-03-13T13:44:49.234Z,14.58
2017-03-13T13:45:29.813Z,14.68
2017-03-13T13:46:10.492Z,14.63
2017-03-13T13:46:51.140Z,14.72
2017-03-13T13:47:31.739Z,14.77
2017-03-13T13:48:12.318Z,14.77
2017-03-13T13:48:52.959Z,14.82
2017-03-13T13:49:33.656Z,14.88
2017-03-13T13:50:15.322Z,14.92
2017-03-13T13:50:55.984Z,14.92
2017-03-13T13:51:36.641Z,14.94
2017-03-13T13:52:17.287Z,14.96
2017-03-13T13:52:57.950Z,15
2017-03-13T13:53:38.598Z,15
2017-03-13T13:54:19.338Z,14.94
2017-03-13T13:54:59.908Z,14.88
2017-03-13T13:55:40.495Z,14.77
2017-03-13T13:56:21.175Z,14.86
2017-03-13T13:57:01.836Z,14.86
2017-03-13T13:57:42.486Z,14.89
2017-03-13T13:58:23.210Z,14.99
2017-03-13T13:59:03.939Z,14.96
2017-03-13T13:59:44.585Z,14.94
2017-03-13T14:00:25.230Z,14.94
2017-03-13T14:01:05.964Z,15.02
2017-03-13T14:01:46.669Z,15.1
2017-03-13T14:02:27.457Z,15.14
2017-03-13T14:03:08.041Z,15.24
2017-03-13T14:03:49.701Z,15.19
2017-03-13T14:04:30.692Z,15.22
2017-03-13T14:05:11.282Z,15.27
2017-03-13T14:05:51.957Z,15.29
2017-03-13T14:06:32.606Z,15.35
2017-03-13T14:07:14.301Z,15.42
2017-03-13T14:07:54.954Z,15.36
2017-03-13T14:08:35.603Z,15.43
2017-03-13T14:09:16.231Z,15.35
2017-03-13T14:09:56.888Z,15.39
2017-03-13T14:10:37.560Z,15.43
2017-03-13T14:11:22.711Z,15.4
2017-03-13T14:12:03.339Z,15.4
2017-03-13T14:12:43.908Z,15.39
2017-03-13T14:13:24.572Z,15.4
2017-03-13T14:14:05.229Z,15.4
2017-03-13T14:14:46.005Z,15.42
2017-03-13T14:15:26.636Z,15.44
2017-03-13T14:16:07.275Z,15.43
2017-03-13T14:16:47.927Z,15.4
2017-03-13T14:17:33.202Z,15.4
2017-03-13T14:18:13.844Z,15.39
2017-03-13T14:18:55.514Z,15.33
2017-03-13T14:19:36.191Z,15.36
2017-03-13T14:20:16.778Z,15.28
2017-03-13T14:20:57.396Z,15.36
2017-03-13T14:21:38.036Z,15.28
2017-03-13T14:22:18.639Z,15.28
2017-03-13T14:22:59.378Z,15.27
2017-03-13T14:23:40.023Z,15.27
2017-03-13T14:24:20.723Z,15.29
2017-03-13T14:25:01.383Z,15.35
2017-03-13T14:25:42.037Z,15.31
2017-03-13T14:26:22.784Z,15.35
2017-03-13T14:27:03.543Z,15.27
2017-03-13T14:27:44.208Z,15.31
2017-03-13T14:28:24.859Z,15.29
2017-03-13T14:29:05.510Z,15.21
2017-03-13T14:29:46.089Z,15.24
2017-03-13T14:30:26.729Z,15.22
2017-03-13T14:31:07.310Z,15.17
2017-03-13T14:31:47.946Z,15.1
2017-03-13T14:32:28.510Z,15.1
2017-03-13T14:33:09.134Z,15.15
2017-03-13T14:33:49.728Z,15.19
2017-03-13T14:34:32.370Z,15.07
2017-03-13T14:35:12.936Z,15.07
2017-03-13T14:35:53.590Z,15.11
2017-03-13T14:36:34.306Z,15.14
2017-03-13T14:37:16.941Z,15.19
2017-03-13T14:37:58.624Z,15.09
2017-03-13T14:38:39.274Z,15.04
2017-03-13T14:39:19.910Z,15.1
2017-03-13T14:47:06.473Z,15.25
2017-03-13T14:47:47.101Z,15.28
2017-03-13T14:48:27.746Z,15.24
2017-03-13T14:49:09.344Z,15.24
2017-03-13T14:49:49.973Z,15.28
2017-03-13T14:50:30.569Z,15.24
2017-03-13T14:51:11.164Z,15.31
2017-03-13T14:51:51.746Z,15.24
2017-03-13T14:52:32.405Z,15.28
2017-03-13T14:53:13.084Z,15.27
2017-03-13T14:53:53.674Z,15.29
2017-03-13T14:54:34.242Z,15.28
2017-03-13T14:55:14.919Z,15.29
2017-03-13T14:55:55.566Z,15.35
2017-03-13T14:56:36.132Z,15.28
2017-03-13T14:57:16.745Z,15.29
2017-03-13T14:57:57.408Z,15.33
2017-03-13T14:58:38.073Z,15.27
2017-03-13T14:59:18.729Z,15.25
2017-03-13T14:59:59.386Z,15.21
2017-03-13T15:00:39.994Z,15.21
2017-03-13T15:01:20.570Z,15.27
2017-03-13T15:02:01.236Z,15.27
2017-03-13T15:02:41.853Z,15.29
2017-03-13T15:03:22.434Z,15.28
2017-03-13T15:04:03.083Z,15.31
2017-03-13T15:04:43.713Z,15.37
2017-03-13T15:05:24.281Z,15.29
2017-03-13T15:06:04.938Z,15.36
2017-03-13T15:06:45.527Z,15.35
2017-03-13T15:07:26.122Z,15.25
2017-03-13T15:08:06.771Z,15.33
2017-03-13T15:08:47.445Z,15.31
2017-03-13T15:09:28.145Z,15.25
2017-03-13T15:10:08.729Z,15.28
2017-03-13T15:10:49.386Z,15.18
2017-03-13T15:11:29.961Z,15.15
2017-03-13T15:12:10.606Z,15.07
2017-03-13T15:12:51.199Z,15.04
2017-03-13T15:13:31.786Z,15.03
2017-03-13T15:14:12.388Z,15.04
2017-03-13T15:14:53.014Z,15
2017-03-13T15:15:33.666Z,14.92
2017-03-13T15:16:14.521Z,14.91
2017-03-13T15:16:55.183Z,14.86
2017-03-13T15:17:35.834Z,14.84
2017-03-13T15:18:16.489Z,14.79
2017-03-13T15:18:57.142Z,14.78
2017-03-13T15:19:37.793Z,14.79
2017-03-13T15:20:18.455Z,14.81
2017-03-13T15:20:59.192Z,14.85
2017-03-13T15:21:39.849Z,14.82
2017-03-13T15:22:20.625Z,14.78
2017-03-13T15:23:01.271Z,14.81
2017-03-13T15:23:41.906Z,14.77